Weather observations for the past three days for
Pleasanton Municipal Airport
Metric (Imperial)
Date Time (cdt) Wind (kph) Vis. (km) Weather Sky Cond. Temperature (ºC) Relative Humidity Wind Chill (°C) Heat Index (°C) Pressure Precipitation (cm)
Air Dwpt 6 hour altimeter (cm) sea level (mb) 1 hr 3 hr 6 hr
Max. Min.
06 00:15 SE 13 16.09 Overcast OVC015 24.8 21.8 83% 25 75.67 0.0
05 23:55 Calm 16.09 Overcast OVC015 24.9 21.8 83% 26 75.67 0.0
05 23:35 SE 19 16.09 Overcast OVC017 25 22 83% 26 75.67 0.0
05 23:15 SE 13 16.09 Overcast OVC017 25.1 22.1 84% 26 75.64 0.0
05 22:55 E 13 16.09 Overcast OVC017 25.3 22.1 83% 26 75.62 0.0
05 22:35 E 11 16.09 Mostly Cloudy BKN019 25.3 22.1 83% 26 75.62 0.0
05 22:15 E 11 16.09 Mostly Cloudy BKN019 25.5 22 81% 27 75.59 0.0
05 21:55 E 9 16.09 Partly Cloudy SCT021 25.7 22 80% 27 75.57 0.0
05 21:35 SE 17 16.09 Fair CLR 26.1 22 78% 28 75.51 0.0
05 21:15 SE 17 G 28 16.09 Fair CLR 26.6 22 76% 29 75.49 0.0
05 20:55 SE 17 G 30 16.09 Fair CLR 27 22 74% 29 75.46 0.0
05 20:35 SE 17 G 28 16.09 Fair CLR 27.7 22.1 72% 30 75.44 0.0
05 20:15 SE 19 G 26 16.09 Fair CLR 28.2 22.1 70% 31 75.44 0.0
05 19:55 SE 20 16.09 Fair CLR 28.9 22.1 67% 32 75.41 0.0
05 19:35 SE 13 16.09 Fair CLR 30.1 22.1 62% 33 75.39 0.0
05 19:15 SE 17 G 28 16.09 Fair CLR 30.6 21.9 60% 34 75.39 0.0
05 18:55 SE 15 16.09 Fair CLR 31.3 21.5 33.2 28.2 56% 34 75.36 0.0
05 18:35 SE 13 16.09 Fair CLR 32 20.9 52% 35 75.36 0.0
05 18:15 SE 17 16.09 Fair CLR 32.2 21.1 52% 35 75.34 0.0
05 17:55 SE 19 G 28 16.09 Fair CLR 32.6 21.3 51% 36 75.36 0.0
05 17:35 SE 15 16.09 Partly Cloudy SCT050 32.8 21.3 51% 36 75.36 0.0
05 17:15 SE 13 16.09 Fair CLR 33.1 21.4 50% 37 75.36 0.0
05 16:55 SE 9 16.09 Partly Cloudy SCT050 33.1 21.5 51% 37 75.39 0.0
05 16:35 Calm 16.09 Partly Cloudy SCT050 32.5 21.3 52% 36 75.41 0.0
05 16:15 E 13 16.09 Partly Cloudy SCT046 32.6 21.6 52% 36 75.44 0.0
05 15:55 E 11 16.09 Fair CLR 32.2 21.4 53% 35 75.46 0.0
05 15:35 E 7 16.09 Fair CLR 31.6 21.5 55% 35 75.49 0.0
05 15:15 SE 7 16.09 Fair CLR 31.2 21.4 56% 34 75.51 0.0
05 14:35 SE 11 16.09 Partly Cloudy SCT035 30.5 21.4 58% 33 75.57 0.0
05 14:15 E 6 16.09 Partly Cloudy SCT035 30.3 21.2 58% 33 75.59 0.0
05 13:55 SE 11 16.09 Partly Cloudy SCT033 SCT039 29.6 20.9 60% 32 75.59 0.0
05 13:35 S 9 16.09 Partly Cloudy SCT029 29.1 20.8 61% 31 75.64 0.0
05 13:15 Calm 16.09 Partly Cloudy SCT029 28.7 20.9 63% 31 75.64 0.0
05 12:55 S 9 16.09 Mostly Cloudy BKN027 28.5 20.7 28.5 21.2 63% 31 75.67 0.0
05 12:35 S 7 16.09 Mostly Cloudy BKN025 BKN031 28 20.8 65% 30 75.67 0.0
05 12:15 S 9 16.09 Mostly Cloudy BKN022 26.7 20.5 69% 28 75.69 0.0
05 11:55 S 11 16.09 Mostly Cloudy BKN022 26.7 20.6 69% 28 75.69 0.0
05 11:35 S 11 16.09 Overcast OVC020 25.8 20.3 72% 27 75.69 0.0
05 11:15 S 9 16.09 Overcast OVC018 25.5 20.6 74% 27 75.69 0.0
05 10:35 S 11 16.09 Overcast OVC018 24.6 20.3 77% 25 75.69 0.0
05 10:15 S 7 16.09 Overcast OVC018 24.1 20.2 79% 25 75.69 0.0
05 09:55 SE 7 16.09 Overcast OVC018 23.5 20.1 81% 75.69 0.0
05 09:35 S 7 16.09 Overcast OVC018 23.1 20.1 83% 75.72 0.0
05 09:15 SE 6 16.09 Overcast OVC016 22.5 19.8 85% 75.72 0.0
05 08:55 SE 6 16.09 Overcast OVC016 22.3 19.8 86% 75.72 0.0
05 08:35 SE 6 16.09 Overcast OVC016 22 19.6 86% 75.72 0.0
05 08:15 Calm 16.09 Overcast OVC016 22 19.5 86% 75.69 0.0
05 07:55 Calm 16.09 Overcast OVC016 21.7 19.3 86% 75.69 0.0
05 07:35 S 6 16.09 Overcast OVC014 21.5 19.3 87% 75.67 0.0
05 07:15 S 7 16.09 Overcast OVC012 21.4 19.1 87% 75.67 0.0
05 06:55 S 11 16.09 Overcast OVC012 21.2 19.1 21.2 20 88% 75.64 0.0
05 06:35 S 9 16.09 Overcast OVC012 21.1 19.1 88% 75.62 0.0
05 06:15 S 9 16.09 Overcast OVC012 21 19 88% 75.62 0.0
05 05:55 S 9 16.09 Overcast OVC012 21 19 88% 75.64 0.0
05 05:35 S 11 16.09 Overcast OVC012 21 18.8 87% 75.64 0.0
05 05:15 S 9 16.09 Overcast OVC012 20.9 18.9 88% 75.64 0.0
05 04:55 S 11 16.09 Overcast OVC012 20.7 18.8 89% 75.62 0.0
05 04:35 S 9 16.09 Overcast OVC014 20.5 18.8 90% 75.64 0.0
05 04:15 SE 9 16.09 Overcast OVC014 20.3 18.7 91% 75.64 0.0
05 03:55 SE 7 16.09 Mostly Cloudy BKN014 20.2 18.6 91% 75.67 0.0
05 03:35 S 9 16.09 Overcast OVC014 20.5 18.7 89% 75.67 0.0
05 03:15 S 7 16.09 Overcast OVC014 20.3 18.7 91% 75.69 0.0
05 02:55 SE 6 16.09 Mostly Cloudy BKN016 20.1 18.5 91% 75.69 0.0
05 02:35 SE 6 16.09 Partly Cloudy SCT016 20.1 18.5 91% 75.72 0.0
05 02:15 S 7 16.09 Fair CLR 20.2 18.5 90% 75.74 0.0
05 01:55 S 9 16.09 Fair CLR 20.4 18.5 89% 75.77 0.0
05 01:35 SE 9 16.09 Fair CLR 20.6 18.5 88% 75.77 0.0
05 01:15 S 7 16.09 Fair CLR 20.7 18.5 87% 75.82 0.0
05 00:55 S 11 16.09 Fair CLR 21 18.4 27.8 21 85% 75.82 0.0
05 00:35 S 9 16.09 Fair CLR 21.2 18.3 84% 75.82 0.0
05 00:15 S 15 16.09 Fair CLR 21.5 18.4 83% 75.79 0.0
04 23:55 SE 15 16.09 Fair CLR 21.6 18.4 82% 75.82 0.0
04 23:35 S 15 16.09 Fair CLR 22 18.5 81% 75.82 0.0
04 23:15 SE 13 16.09 Fair CLR 22.1 18.5 80% 75.82 0.0
04 22:55 SE 15 16.09 Fair CLR 22.3 18.7 80% 75.82 0.0
04 22:35 SE 11 16.09 Fair CLR 22.5 18.6 79% 75.79 0.0
04 22:15 SE 11 16.09 Fair CLR 23.1 18.7 76% 75.82 0.0
04 21:55 SE 9 16.09 Fair CLR 23.3 18.7 75% 75.79 0.0
04 21:35 SE 11 16.09 Fair CLR 23.5 18.7 75% 75.77 0.0
04 21:15 SE 13 16.09 Fair CLR 24 18.5 71% 25 75.74 0.0
04 20:55 SE 9 16.09 Fair CLR 24.3 18.4 70% 25 75.74 0.0
04 20:35 SE 9 16.09 Fair CLR 24.7 18.3 68% 26 75.72 0.0
04 20:15 SE 11 16.09 Fair CLR 25.4 18.2 64% 26 75.72 0.0
04 19:55 SE 11 16.09 Fair CLR 26 18 61% 27 75.72 0.0
04 19:35 SE 13 16.09 Fair CLR 26.2 17.9 60% 27 75.72 0.0
04 19:15 SE 17 16.09 Fair CLR 26.8 17.6 57% 28 75.72 0.0
04 18:55 S 15 16.09 Partly Cloudy SCT048 27.9 17.1 28.3 26 52% 29 75.74 0.0
04 18:35 S 13 16.09 Partly Cloudy SCT048 27 17.3 55% 28 75.74 0.0
04 18:15 S 15 16.09 Partly Cloudy SCT046 27.6 17 52% 28 75.74 0.0
04 17:55 S 15 16.09 Mostly Cloudy SCT043 BKN048 27.5 17.2 53% 28 75.77 0.0
04 17:35 S 15 16.09 Mostly Cloudy BKN048 27.6 17.1 53% 28 75.79 0.0
04 17:15 S 20 G 28 16.09 Mostly Cloudy BKN048 27.9 17.1 52% 29 75.79 0.0
04 16:55 S 22 16.09 Overcast OVC048 27.7 17 52% 28 75.82 0.0
04 16:35 S 15 16.09 Mostly Cloudy BKN048 27.9 17.1 52% 29 75.84 0.0
04 16:15 S 13 16.09 Overcast OVC048 28 17.1 52% 29 75.87 0.0
04 15:55 S 17 16.09 Overcast OVC048 27.7 16.8 52% 28 75.9 0.0
04 15:35 S 15 16.09 Overcast OVC048 27.7 17 52% 28 75.92 0.0
04 15:15 S 17 G 26 16.09 Overcast OVC046 27 16.8 54% 28 75.95 0.0
04 14:55 S 17 16.09 Overcast OVC046 27.1 16.9 54% 28 75.97 0.0
04 14:35 S 11 16.09 Overcast OVC046 27 16.7 53% 28 75.97 0.0
04 14:15 S 15 16.09 Overcast OVC043 26.6 16.5 54% 27 76 0.0
04 13:55 S 13 G 19 16.09 Overcast OVC045 26.2 16.6 56% 27 76.02 0.0
04 13:35 S 15 16.09 Overcast OVC043 26.2 16.6 56% 27 76.02 0.0
04 13:15 S 20 16.09 Overcast OVC043 26.3 16.5 55% 27 76.05 0.0
04 12:55 S 15 16.09 Overcast OVC043 26.1 16.5 26.2 16.1 56% 27 76.05 0.0
04 12:35 S 11 16.09 Overcast OVC043 25.7 16.6 57% 27 76.07 0.0
04 12:15 S 13 16.09 Mostly Cloudy BKN041 25.3 16.7 59% 26 76.1 0.0
04 11:55 S 9 16.09 Mostly Cloudy BKN036 24.5 16.6 62% 26 76.12 0.0
04 11:35 S 15 16.09 Partly Cloudy SCT027 25.2 17.2 61% 26 76.15 0.0
04 11:15 S 19 16.09 Partly Cloudy SCT025 24.2 16.9 64% 25 76.12 0.0
04 10:55 S 20 G 28 16.09 Partly Cloudy SCT023 23.6 16.9 66% 76.17 0.0
04 10:35 S 13 16.09 Partly Cloudy SCT021 23 17 69% 76.17 0.0
04 10:15 S 13 16.09 Fair CLR 22.2 16.6 71% 76.17 0.0
04 09:55 S 17 16.09 Fair CLR 21.5 16.3 72% 76.17 0.0
04 09:35 S 15 16.09 Fair CLR 21 16.1 74% 76.2 0.0
04 09:15 S 13 16.09 Fair CLR 20.2 15.6 75% 76.2 0.0
04 08:55 S 7 16.09 Fair CLR 19.4 15.1 76% 76.2 0.0
04 08:35 SE 6 16.09 Fair CLR 18.1 14.6 80% 76.2 0.0
04 08:15 SE 6 16.09 Partly Cloudy SCT022 17.5 14.4 82% 76.2 0.0
04 07:55 Calm 16.09 Fair CLR 16.6 14.1 85% 76.17 0.0
04 07:35 SE 6 16.09 Fair CLR 16.3 13.8 85% 76.15 0.0
04 06:55 Calm 16.09 Fair CLR 16.1 13.6 19 15.8 85% 76.15 0.0
04 06:35 Calm 16.09 Fair CLR 15.9 13.6 86% 76.15 0.0
04 06:15 Calm 16.09 Fair CLR 16.3 13.5 84% 76.15 0.0
04 05:55 Calm 16.09 Fair CLR 16.5 13.5 83% 76.17 0.0
04 05:35 SE 6 16.09 Fair CLR 16.5 13.5 83% 76.15 0.0
04 05:15 Calm 16.09 Fair CLR 16.3 13.5 84% 76.17 0.0
04 04:55 Calm 16.09 Fair CLR 16.3 13.3 83% 76.17 0.0
04 04:15 Calm 16.09 Fair CLR 16.5 13.1 80% 76.2 0.0
04 03:55 S 6 16.09 Fair CLR 16.6 13 79% 76.2 0.0
04 03:35 Calm 16.09 Fair CLR 16.8 13 78% 76.23 0.0
04 03:15 Calm 16.09 Fair CLR 17.2 13 76% 76.23 0.0
04 02:55 S 6 16.09 Fair CLR 17.6 13 75% 76.23 0.0
04 02:35 SE 7 16.09 Fair CLR 18 13 73% 76.23 0.0
04 02:15 SE 7 16.09 Fair CLR 18.3 13 71% 76.25 0.0
04 01:55 S 11 16.09 Fair CLR 18.5 13 71% 76.3 0.0
04 01:35 S 9 16.09 Fair CLR 18.6 13 70% 76.33 0.0
04 01:15 S 11 16.09 Fair CLR 18.8 13 69% 76.35 0.0
04 00:55 S 11 16.09 Fair CLR 19 13 26 19 68% 76.33 0.0
04 00:35 S 15 16.09 Fair CLR 19.2 13 67% 76.35 0.0
04 00:15 S 13 16.09 Fair CLR 19.3 13 67% 76.38 0.0
03 23:55 S 13 16.09 Fair CLR 19.5 12.8 65% 76.35 0.0
03 23:35 S 13 16.09 Fair CLR 19.7 12.5 63% 76.35 0.0
03 23:15 SE 13 16.09 Fair CLR 19.9 12.1 61% 76.38 0.0
03 22:55 SE 13 16.09 Fair CLR 20 11.9 60% 76.38 0.0
03 22:35 SE 13 16.09 Fair CLR 20.5 11.5 56% 76.38 0.0
03 22:15 S 15 16.09 Fair CLR 20.7 11.4 55% 76.35 0.0
03 21:55 SE 11 16.09 Fair CLR 21.1 11.3 54% 76.35 0.0
03 21:35 SE 11 16.09 Fair CLR 21.5 11.4 53% 76.35 0.0
03 21:15 SE 11 16.09 Fair CLR 21.6 11.4 52% 76.35 0.0
03 20:55 SE 13 16.09 Fair CLR 22.1 11.1 50% 76.33 0.0
03 20:35 SE 9 16.09 Fair CLR 22.6 10.7 47% 76.3 0.0
03 20:15 SE 11 16.09 Fair CLR 23.4 9.9 42% 76.3 0.0
03 19:55 SE 9 16.09 Fair CLR 24.2 9 38% 25 76.3 0.0
03 19:35 SE 11 16.09 Fair CLR 24.7 8.6 36% 25 76.28 0.0
03 19:15 SE 9 16.09 Fair CLR 25.6 8.3 33% 26 76.28 0.0
03 18:55 S 9 16.09 Fair CLR 26 7.6 26.7 23.7 31% 26 76.3 0.0
03 18:35 S 15 16.09 Fair CLR 26.1 7.9 32% 26 76.33 0.0
03 18:15 SE 9 16.09 Fair CLR 26.4 8 31% 26 76.3 0.0
03 17:55 SE 11 16.09 Fair CLR 26.6 8 31% 26 76.3 0.0
03 17:35 SE 11 16.09 Fair CLR 26.6 8.3 31% 26 76.33 0.0
03 17:15 E 19 16.09 Fair CLR 26.5 8.1 31% 26 76.35 0.0
03 16:55 Calm 16.09 Fair CLR 26.3 7.2 30% 26 76.38 0.0
03 16:35 SE 11 16.09 Fair CLR 26.5 7.2 29% 26 76.4 0.0
03 16:15 SE 11 16.09 Fair CLR 26.5 7.9 31% 26 76.45 0.0
03 15:55 S 17 16.09 Fair CLR 26.4 6.8 29% 26 76.48 0.0
03 15:35 S 7 16.09 Fair CLR 26.2 6.5 28% 26 76.5 0.0
03 15:15 SE 13 16.09 Fair CLR 26 8 32% 26 76.53 0.0
03 14:55 SE 11 16.09 Fair CLR 25.5 7.8 32% 26 76.58 0.0
03 14:35 SE 13 16.09 Fair CLR 25.4 7.9 33% 26 76.58 0.0
03 14:15 SE 15 16.09 Fair CLR 25 7.9 34% 25 76.63 0.0
03 13:55 S 13 16.09 Fair CLR 24.4 7.9 35% 25 76.63 0.0
03 13:35 SW 7 16.09 Fair CLR 24.4 7.8 35% 25 76.66 0.0
03 13:15 S 7 16.09 Fair CLR 23.8 7.5 35% 76.68 0.0
03 12:55 S 7 16.09 Fair CLR 24.2 8.4 24.2 11.7 37% 25 76.71 0.0
03 12:35 SE 7 16.09 Fair CLR 23.8 9.1 39% 76.76 0.0
03 12:15 SE 9 16.09 Fair CLR 23.4 9.3 41% 76.76 0.0
03 11:55 SE 11 16.09 Fair CLR 22.7 9.8 44% 76.78 0.0
03 11:35 E 7 16.09 Fair CLR 22.5 10.6 47% 76.81 0.0
03 11:15 SE 9 16.09 Fair CLR 22 10.2 47% 76.81 0.0
03 10:55 Calm 16.09 Fair CLR 21.5 9.8 47% 76.84 0.0
03 10:35 S 9 16.09 Fair CLR 21 10.1 50% 76.84 0.0
03 10:15 Calm 16.09 Fair CLR 20.5 10.2 52% 76.86 0.0
03 09:55 Calm 16.09 Fair CLR 19.6 10.6 56% 76.84 0.0
03 09:35 Calm 16.09 Fair CLR 18.4 12 66% 76.84 0.0
03 09:15 Calm 16.09 Fair CLR 17.5 11.2 67% 76.84 0.0
03 08:55 Calm 16.09 Fair CLR 16.5 11.9 74% 76.81 0.0
03 08:35 Calm 16.09 Fair CLR 15.7 12 79% 76.78 0.0
03 08:15 Calm 16.09 Fair CLR 14.5 11.6 83% 76.78 0.0
03 07:35 Calm 16.09 Fair CLR 12.4 10.9 91% 76.76 0.0
03 07:15 Calm 16.09 Fair CLR 11.7 10.4 92% 76.73 0.0
03 06:55 Calm 16.09 Fair CLR 11.7 10.5 13.5 11 92% 76.71 0.0
03 06:35 Calm 16.09 Fair CLR 11.6 10.5 93% 76.71 0.0
03 06:15 Calm 16.09 Fair CLR 11.7 10.6 93% 76.68 0.0
03 05:55 Calm 16.09 Fair CLR 11.7 10.5 92% 76.68 0.0
03 05:35 Calm 16.09 Fair CLR 11.1 10.1 94% 76.66 0.0
03 05:15 Calm 16.09 Fair CLR 11.2 10.2 94% 76.66 0.0
03 04:55 Calm 16.09 Fair CLR 11.4 10.1 92% 76.66 0.0
03 04:35 Calm 16.09 Fair CLR 11.7 10.5 92% 76.63 0.0
03 04:15 Calm 16.09 Fair CLR 12 10.6 91% 76.63 0.0
03 03:55 Calm 16.09 Fair CLR 12.5 11 91% 76.63 0.0
03 03:35 Calm 16.09 Fair CLR 12.8 11.3 91% 76.66 0.0
03 03:15 Calm 16.09 Fair CLR 12.4 10.8 90% 76.66 0.0
03 02:55 Calm 16.09 Fair CLR 12.9 11 88% 76.66 0.0
03 02:35 Calm 16.09 Fair CLR 12.8 10.8 88% 76.68 0.0
03 02:15 Calm 16.09 Fair CLR 12.8 10.8 88% 76.71 0.0
03 01:55 Calm 16.09 Fair CLR 13.5 11 85% 76.71 0.0
03 01:35 Calm 16.09 Fair CLR 13.1 10.6 85% 76.71 0.0
03 01:15 Calm 16.09 Fair CLR 13.1 11.5 90% 76.71 0.0
03 00:55 Calm 16.09 Fair CLR 13.2 10.8 22.5 13.1 86% 76.73 0.0
03 00:35 Calm 16.09 Fair CLR 13.4 10.2 81% 76.68 0.0
Date Time (cdt) Wind (kph) Vis. (km) Weather Sky Cond. Air Dwpt Max. Min. Relative Humidity Wind Chill (°C) Heat Index (°C) altimeter (cm) sea level (mb) 1 hr 3 hr 6 hr
6 hour
Temperature (ºC) Pressure Precipitation (cm)